| time (UTC) | temp C | wind direction | speed KPH | gust KPH | rain 1hr cm | rain 24hr cm | rain mn cm | humidity % | barometer mb |
| 20260509131516 | 7 | 149 | 0.0 | 0.0 | 0.00 | 0.00 | 0.00 | 96 | 1025.5 |
| 20260509131013 | 7 | 145 | 0.0 | 0.0 | 0.00 | 0.00 | 0.00 | 96 | 1025.5 |
| 20260509130509 | 7 | 157 | 0.0 | 0.0 | 0.00 | 0.00 | 0.00 | 95 | 1025.4 |
| 20260509130006 | 7 | 153 | 0.0 | 0.0 | 0.00 | 0.00 | 0.00 | 95 | 1025.2 |
| 20260509125502 | 7 | 154 | 0.0 | 0.0 | 0.00 | 0.00 | 0.00 | 95 | 1025.3 |
| 20260509124958 | 7 | 153 | 0.0 | 0.0 | 0.00 | 0.00 | 0.00 | 95 | 1025.3 |
| 20260509124456 | 7 | 153 | 0.0 | 0.0 | 0.00 | 0.00 | 0.00 | 95 | 1025.2 |
| 20260509123953 | 7 | 153 | 0.0 | 0.0 | 0.00 | 0.00 | 0.00 | 95 | 1025.3 |
| 20260509123450 | 8 | 153 | 0.0 | 0.0 | 0.00 | 0.00 | 0.00 | 95 | 1025.1 |
| 20260509122945 | 8 | 147 | 0.0 | 0.0 | 0.00 | 0.00 | 0.00 | 95 | 1025.2 |
| 20260509122442 | 8 | 142 | 0.0 | 1.6 | 0.00 | 0.00 | 0.00 | 95 | 1025.4 |
| 20260509121939 | 8 | 143 | 0.0 | 0.0 | 0.00 | 0.00 | 0.00 | 95 | 1025.4 |
| 20260509121436 | 8 | 152 | 0.0 | 0.0 | 0.00 | 0.00 | 0.00 | 95 | 1025.2 |
| 20260509120934 | 8 | 152 | 0.0 | 0.0 | 0.00 | 0.00 | 0.00 | 95 | 1025.5 |
| 20260509120432 | 8 | 152 | 0.0 | 0.0 | 0.00 | 0.00 | 0.00 | 94 | 1025.5 |
| 20260509115929 | 8 | 153 | 0.0 | 0.0 | 0.00 | 0.00 | 0.00 | 94 | 1025.3 |
| 20260509115426 | 8 | 152 | 0.0 | 0.0 | 0.00 | 0.00 | 0.00 | 94 | 1025.3 |
| 20260509114924 | 8 | 153 | 0.0 | 0.0 | 0.00 | 0.00 | 0.00 | 94 | 1025.3 |
| 20260509114423 | 8 | 152 | 0.0 | 0.0 | 0.00 | 0.00 | 0.00 | 94 | 1025.5 |
| 20260509113922 | 8 | 152 | 0.0 | 0.0 | 0.00 | 0.00 | 0.00 | 94 | 1025.6 |
| 20260509113419 | 8 | 153 | 0.0 | 0.0 | 0.00 | 0.00 | 0.00 | 93 | 1025.3 |
| 20260509112916 | 8 | 153 | 0.0 | 0.0 | 0.00 | 0.00 | 0.00 | 93 | 1025.4 |
| 20260509112413 | 8 | 153 | 0.0 | 0.0 | 0.00 | 0.00 | 0.00 | 93 | 1025.3 |
| 20260509111909 | 8 | 153 | 0.0 | 0.0 | 0.00 | 0.00 | 0.00 | 93 | 1025.5 |
| 20260509111406 | 9 | 152 | 0.0 | 0.0 | 0.00 | 0.00 | 0.00 | 93 | 1025.5 |
| 20260509110904 | 9 | 153 | 0.0 | 0.0 | 0.00 | 0.00 | 0.00 | 93 | 1025.5 |
| 20260509110359 | 9 | 152 | 0.0 | 0.0 | 0.00 | 0.00 | 0.00 | 92 | 1025.3 |
| 20260509105858 | 9 | 153 | 0.0 | 0.0 | 0.00 | 0.00 | 0.00 | 92 | 1025.7 |
| 20260509105356 | 10 | 153 | 0.0 | 0.0 | 0.00 | 0.00 | 0.00 | 92 | 1025.7 |
| 20260509104852 | 10 | 152 | 0.0 | 0.0 | 0.00 | 0.00 | 0.00 | 92 | 1025.7 |
| 20260509104349 | 10 | 153 | 0.0 | 0.0 | 0.00 | 0.00 | 0.00 | 91 | 1025.6 |
| 20260509103847 | 10 | 150 | 0.0 | 0.0 | 0.00 | 0.00 | 0.00 | 91 | 1025.5 |
| 20260509103344 | 10 | 150 | 0.0 | 0.0 | 0.00 | 0.00 | 0.00 | 90 | 1025.6 |
| 20260509102843 | 10 | 130 | 0.0 | 0.0 | 0.00 | 0.00 | 0.00 | 90 | 1025.6 |
| 20260509102339 | 10 | 148 | 0.0 | 1.6 | 0.00 | 0.00 | 0.00 | 89 | 1025.5 |
| 20260509101835 | 10 | 143 | 1.6 | 1.6 | 0.00 | 0.00 | 0.00 | 89 | 1025.6 |
| 20260509101331 | 11 | 153 | 0.0 | 1.6 | 0.00 | 0.00 | 0.00 | 88 | 1025.7 |
| 20260509100830 | 11 | 153 | 0.0 | 0.0 | 0.00 | 0.00 | 0.00 | 87 | 1025.6 |
| 20260509100326 | 11 | 161 | 0.0 | 3.2 | 0.00 | 0.00 | 0.00 | 87 | 1025.9 |
| 20260509095823 | 11 | 161 | 0.0 | 0.0 | 0.00 | 0.00 | 0.00 | 87 | 1026.0 |
| 20260509095320 | 11 | 154 | 0.0 | 0.0 | 0.00 | 0.00 | 0.00 | 86 | 1026.0 |
| 20260509094817 | 11 | 172 | 1.6 | 1.6 | 0.00 | 0.00 | 0.00 | 85 | 1025.8 |
| 20260509094314 | 11 | 167 | 0.0 | 3.2 | 0.00 | 0.00 | 0.00 | 85 | 1025.8 |
| 20260509093812 | 11 | 166 | 0.0 | 0.0 | 0.00 | 0.00 | 0.00 | 85 | 1025.9 |
| 20260509093309 | 11 | 203 | 0.0 | 0.0 | 0.00 | 0.00 | 0.00 | 85 | 1025.9 |
| 20260509092807 | 11 | 189 | 1.6 | 1.6 | 0.00 | 0.00 | 0.00 | 85 | 1026.0 |
| 20260509092306 | 11 | 164 | 1.6 | 1.6 | 0.00 | 0.00 | 0.00 | 85 | 1026.0 |
| 20260509091803 | 11 | 158 | 0.0 | 0.0 | 0.00 | 0.00 | 0.00 | 85 | 1025.9 |
| 20260509091259 | 11 | 171 | 0.0 | 0.0 | 0.00 | 0.00 | 0.00 | 85 | 1026.1 |
| 20260509090756 | 11 | 159 | 0.0 | 0.0 | 0.00 | 0.00 | 0.00 | 85 | 1025.9 |
| 20260509090253 | 11 | 155 | 1.6 | 1.6 | 0.00 | 0.00 | 0.00 | 85 | 1026.2 |
| 20260509085751 | 12 | 171 | 0.0 | 0.0 | 0.00 | 0.00 | 0.00 | 85 | 1026.3 |
| 20260509085248 | 12 | 170 | 0.0 | 1.6 | 0.00 | 0.00 | 0.00 | 85 | 1026.2 |
| 20260509084744 | 12 | 173 | 1.6 | 3.2 | 0.00 | 0.00 | 0.00 | 85 | 1026.4 |
| 20260509084241 | 12 | 177 | 1.6 | 3.2 | 0.00 | 0.00 | 0.00 | 85 | 1026.4 |
| 20260509083739 | 12 | 202 | 0.0 | 3.2 | 0.00 | 0.00 | 0.00 | 85 | 1026.0 |
| 20260509083236 | 12 | 213 | 4.8 | 4.8 | 0.00 | 0.00 | 0.00 | 85 | 1026.0 |
| 20260509082732 | 12 | 172 | 3.2 | 3.2 | 0.00 | 0.00 | 0.00 | 85 | 1026.2 |
| 20260509082230 | 12 | 167 | 1.6 | 1.6 | 0.00 | 0.00 | 0.00 | 85 | 1026.1 |
| 20260509081726 | 12 | 171 | 1.6 | 4.8 | 0.00 | 0.00 | 0.00 | 85 | 1026.2 |
| 20260509081224 | 12 | 182 | 1.6 | 1.6 | 0.00 | 0.00 | 0.00 | 84 | 1026.0 |
| 20260509080722 | 12 | 157 | 0.0 | 1.6 | 0.00 | 0.00 | 0.00 | 84 | 1026.3 |
| 20260509080219 | 12 | 169 | 1.6 | 3.2 | 0.00 | 0.00 | 0.00 | 84 | 1025.9 |
| 20260509075718 | 12 | 191 | 1.6 | 4.8 | 0.00 | 0.00 | 0.00 | 85 | 1026.1 |
| 20260509075215 | 11 | 185 | 0.0 | 1.6 | 0.00 | 0.00 | 0.00 | 87 | 1026.1 |
| 20260509074711 | 11 | 166 | 3.2 | 3.2 | 0.00 | 0.00 | 0.00 | 89 | 1025.9 |
| 20260509074209 | 11 | 156 | 0.0 | 0.0 | 0.00 | 0.00 | 0.00 | 90 | 1026.2 |
| 20260509073705 | 11 | 161 | 0.0 | 0.0 | 0.00 | 0.00 | 0.00 | 90 | 1025.9 |
| 20260509073201 | 10 | 152 | 0.0 | 0.0 | 0.00 | 0.00 | 0.00 | 90 | 1026.1 |
| 20260509072658 | 10 | 151 | 0.0 | 0.0 | 0.00 | 0.00 | 0.00 | 90 | 1026.0 |
| 20260509072155 | 10 | 149 | 0.0 | 0.0 | 0.00 | 0.00 | 0.00 | 91 | 1025.9 |
| 20260509071651 | 10 | 145 | 0.0 | 0.0 | 0.00 | 0.00 | 0.00 | 91 | 1025.9 |
| 20260509071148 | 10 | 151 | 0.0 | 0.0 | 0.00 | 0.00 | 0.00 | 91 | 1025.9 |
| 20260509070645 | 10 | 141 | 0.0 | 0.0 | 0.00 | 0.00 | 0.00 | 91 | 1025.8 |
| 20260509070142 | 10 | 159 | 0.0 | 0.0 | 0.00 | 0.00 | 0.00 | 91 | 1026.1 |
| 20260509065637 | 10 | 150 | 0.0 | 0.0 | 0.00 | 0.00 | 0.00 | 91 | 1025.9 |
| 20260509065129 | 10 | 150 | 0.0 | 0.0 | 0.00 | 0.00 | 0.00 | 91 | 1025.8 |
| 20260509064626 | 10 | 150 | 0.0 | 0.0 | 0.00 | 0.00 | 0.00 | 91 | 1025.6 |
| 20260509064124 | 10 | 152 | 0.0 | 0.0 | 0.00 | 0.00 | 0.00 | 91 | 1025.8 |
| 20260509063620 | 10 | 152 | 0.0 | 0.0 | 0.00 | 0.00 | 0.00 | 91 | 1025.9 |
| 20260509063117 | 10 | 152 | 0.0 | 0.0 | 0.00 | 0.00 | 0.00 | 91 | 1025.8 |
| 20260509062614 | 9 | 146 | 1.6 | 3.2 | 0.00 | 0.00 | 0.00 | 91 | 1025.9 |
| 20260509062111 | 9 | 139 | 0.0 | 0.0 | 0.00 | 0.00 | 0.00 | 91 | 1025.8 |
| 20260509061608 | 9 | 129 | 0.0 | 0.0 | 0.00 | 0.00 | 0.00 | 91 | 1025.8 |
| 20260509061105 | 9 | 160 | 0.0 | 0.0 | 0.00 | 0.00 | 0.00 | 91 | 1025.6 |
| 20260509060603 | 9 | 152 | 0.0 | 0.0 | 0.00 | 0.00 | 0.00 | 90 | 1025.6 |
| 20260509060059 | 9 | 132 | 1.6 | 3.2 | 0.00 | 0.00 | 0.00 | 91 | 1025.7 |
| 20260509055554 | 9 | 138 | 0.0 | 0.0 | 0.00 | 0.00 | 0.00 | 90 | 1025.5 |
| 20260509055050 | 10 | 149 | 0.0 | 0.0 | 0.00 | 0.00 | 0.00 | 90 | 1025.7 |
| 20260509054548 | 10 | 150 | 0.0 | 0.0 | 0.00 | 0.00 | 0.00 | 90 | 1025.6 |
| 20260509054045 | 10 | 155 | 0.0 | 0.0 | 0.00 | 0.00 | 0.00 | 89 | 1025.7 |
| 20260509053543 | 10 | 153 | 0.0 | 0.0 | 0.00 | 0.00 | 0.00 | 89 | 1025.6 |
| 20260509053040 | 10 | 151 | 0.0 | 0.0 | 0.00 | 0.00 | 0.00 | 88 | 1025.4 |
| 20260509052538 | 10 | 151 | 0.0 | 0.0 | 0.00 | 0.00 | 0.00 | 88 | 1025.7 |
| 20260509052036 | 10 | 145 | 0.0 | 0.0 | 0.00 | 0.00 | 0.00 | 88 | 1025.5 |
| 20260509051533 | 10 | 136 | 1.6 | 1.6 | 0.00 | 0.00 | 0.00 | 88 | 1025.4 |
| 20260509051030 | 10 | 143 | 0.0 | 0.0 | 0.00 | 0.00 | 0.00 | 87 | 1025.5 |
| 20260509050526 | 10 | 122 | 1.6 | 1.6 | 0.00 | 0.00 | 0.00 | 87 | 1025.6 |
| 20260509050023 | 10 | 154 | 3.2 | 3.2 | 0.00 | 0.00 | 0.00 | 87 | 1025.7 |
| 20260509045521 | 10 | 109 | 0.0 | 0.0 | 0.00 | 0.00 | 0.00 | 87 | 1025.4 |
| 20260509045018 | 10 | 144 | 0.0 | 0.0 | 0.00 | 0.00 | 0.00 | 87 | 1025.5 |
| 20260509044515 | 10 | 147 | 0.0 | 0.0 | 0.00 | 0.00 | 0.00 | 86 | 1025.5 |
| 20260509044012 | 10 | 148 | 0.0 | 0.0 | 0.00 | 0.00 | 0.00 | 85 | 1025.4 |
| 20260509043508 | 11 | 148 | 0.0 | 0.0 | 0.00 | 0.00 | 0.00 | 84 | 1025.3 |
| 20260509043004 | 11 | 148 | 0.0 | 0.0 | 0.00 | 0.00 | 0.00 | 84 | 1025.3 |
| 20260509042500 | 11 | 147 | 0.0 | 0.0 | 0.00 | 0.00 | 0.00 | 84 | 1025.6 |
| 20260509041956 | 11 | 150 | 0.0 | 0.0 | 0.00 | 0.00 | 0.00 | 83 | 1025.3 |
| 20260509041453 | 11 | 150 | 1.6 | 1.6 | 0.00 | 0.00 | 0.00 | 82 | 1025.3 |
| 20260509040951 | 11 | 166 | 1.6 | 1.6 | 0.00 | 0.00 | 0.00 | 81 | 1025.1 |
| 20260509040449 | 11 | 150 | 0.0 | 0.0 | 0.00 | 0.00 | 0.00 | 80 | 1025.4 |
| 20260509035945 | 12 | 148 | 0.0 | 0.0 | 0.00 | 0.00 | 0.00 | 79 | 1025.1 |
| 20260509035442 | 12 | 153 | 0.0 | 0.0 | 0.00 | 0.00 | 0.00 | 78 | 1025.2 |
| 20260509034939 | 12 | 137 | 0.0 | 0.0 | 0.00 | 0.00 | 0.00 | 77 | 1025.0 |
| 20260509034437 | 12 | 161 | 0.0 | 0.0 | 0.00 | 0.00 | 0.00 | 75 | 1024.9 |
| 20260509033934 | 12 | 161 | 0.0 | 1.6 | 0.00 | 0.00 | 0.00 | 75 | 1024.9 |
| 20260509033431 | 13 | 161 | 0.0 | 1.6 | 0.00 | 0.00 | 0.00 | 75 | 1024.9 |
| 20260509032927 | 13 | 164 | 1.6 | 1.6 | 0.00 | 0.00 | 0.00 | 74 | 1024.9 |
| 20260509032425 | 13 | 152 | 0.0 | 1.6 | 0.00 | 0.00 | 0.00 | 74 | 1024.6 |
| 20260509031923 | 13 | 154 | 0.0 | 0.0 | 0.00 | 0.00 | 0.00 | 74 | 1024.6 |
| 20260509031420 | 13 | 154 | 0.0 | 1.6 | 0.00 | 0.00 | 0.00 | 72 | 1024.6 |
| 20260509030917 | 13 | 141 | 0.0 | 0.0 | 0.00 | 0.00 | 0.00 | 72 | 1024.7 |
| 20260509030415 | 13 | 148 | 0.0 | 0.0 | 0.00 | 0.00 | 0.00 | 70 | 1024.5 |
| 20260509025912 | 14 | 150 | 0.0 | 1.6 | 0.00 | 0.00 | 0.00 | 70 | 1024.5 |
| 20260509025407 | 14 | 140 | 0.0 | 1.6 | 0.00 | 0.00 | 0.00 | 69 | 1024.4 |
| 20260509024902 | 14 | 153 | 0.0 | 1.6 | 0.00 | 0.00 | 0.00 | 68 | 1024.4 |
| 20260509024359 | 15 | 222 | 3.2 | 4.8 | 0.00 | 0.00 | 0.00 | 67 | 1024.4 |
| 20260509023856 | 15 | 162 | 4.8 | 4.8 | 0.00 | 0.00 | 0.00 | 66 | 1024.4 |
| 20260509023353 | 15 | 185 | 1.6 | 3.2 | 0.00 | 0.00 | 0.00 | 65 | 1024.5 |
| 20260509022850 | 15 | 189 | 4.8 | 8.0 | 0.00 | 0.00 | 0.00 | 64 | 1024.3 |
| 20260509022347 | 15 | 170 | 0.0 | 8.0 | 0.00 | 0.00 | 0.00 | 64 | 1024.2 |
| 20260509021844 | 15 | 184 | 3.2 | 9.7 | 0.00 | 0.00 | 0.00 | 63 | 1024.1 |
| 20260509021341 | 15 | 177 | 4.8 | 9.7 | 0.00 | 0.00 | 0.00 | 62 | 1024.3 |
| 20260509020839 | 15 | 209 | 3.2 | 8.0 | 0.00 | 0.00 | 0.00 | 63 | 1024.4 |
| 20260509020337 | 15 | 209 | 4.8 | 9.7 | 0.00 | 0.00 | 0.00 | 62 | 1024.5 |
| 20260509015834 | 15 | 198 | 4.8 | 11.3 | 0.00 | 0.00 | 0.00 | 62 | 1024.5 |
| 20260509015332 | 15 | 191 | 3.2 | 8.0 | 0.00 | 0.00 | 0.00 | 63 | 1024.6 |
| 20260509014828 | 15 | 187 | 1.6 | 4.8 | 0.00 | 0.00 | 0.00 | 63 | 1024.6 |
| 20260509014325 | 15 | 207 | 4.8 | 8.0 | 0.00 | 0.00 | 0.00 | 61 | 1024.4 |
| 20260509013822 | 15 | 190 | 4.8 | 11.3 | 0.00 | 0.00 | 0.00 | 61 | 1024.5 |
| 20260509013318 | 16 | 211 | 4.8 | 14.5 | 0.00 | 0.00 | 0.00 | 61 | 1024.1 |
| 20260509012815 | 16 | 150 | 11.3 | 12.9 | 0.00 | 0.00 | 0.00 | 60 | 1024.5 |
| 20260509012311 | 16 | 168 | 4.8 | 11.3 | 0.00 | 0.00 | 0.00 | 59 | 1024.4 |
| 20260509011809 | 16 | 112 | 8.0 | 9.7 | 0.00 | 0.00 | 0.00 | 59 | 1024.4 |
| 20260509011306 | 15 | 180 | 4.8 | 4.8 | 0.00 | 0.00 | 0.00 | 60 | 1024.4 |
| 20260509010804 | 16 | 218 | 4.8 | 11.3 | 0.00 | 0.00 | 0.00 | 59 | 1024.4 |
| 20260509010300 | 16 | 228 | 8.0 | 9.7 | 0.00 | 0.00 | 0.00 | 59 | 1024.3 |
| 20260509005752 | 16 | 161 | 1.6 | 4.8 | 0.00 | 0.00 | 0.00 | 59 | 1024.7 |
| 20260509005249 | 16 | 219 | 6.4 | 11.3 | 0.00 | 0.00 | 0.00 | 59 | 1024.5 |
| 20260509004744 | 15 | 223 | 4.8 | 9.7 | 0.00 | 0.00 | 0.00 | 60 | 1024.4 |
| 20260509004241 | 16 | 226 | 8.0 | 11.3 | 0.00 | 0.00 | 0.00 | 59 | 1024.4 |
| 20260509003739 | 16 | 183 | 1.6 | 9.7 | 0.00 | 0.00 | 0.00 | 58 | 1024.6 |
| 20260509003236 | 16 | 223 | 9.7 | 11.3 | 0.00 | 0.00 | 0.00 | 57 | 1024.6 |
| 20260509002734 | 16 | 251 | 6.4 | 14.5 | 0.00 | 0.00 | 0.00 | 56 | 1024.5 |
| 20260509002231 | 16 | 224 | 8.0 | 11.3 | 0.00 | 0.00 | 0.00 | 56 | 1024.4 |
| 20260509001729 | 17 | 194 | 11.3 | 12.9 | 0.00 | 0.00 | 0.00 | 55 | 1024.6 |
| 20260509001224 | 16 | 174 | 4.8 | 12.9 | 0.00 | 0.00 | 0.00 | 56 | 1024.3 |
| 20260509000722 | 16 | 137 | 3.2 | 12.9 | 0.00 | 0.00 | 0.00 | 57 | 1024.5 |
| 20260509000219 | 17 | 162 | 4.8 | 11.3 | 0.00 | 0.00 | 0.00 | 55 | 1024.5 |
| 20260508235716 | 17 | 147 | 8.0 | 14.5 | 0.00 | 0.00 | 0.00 | 55 | 1024.7 |
| 20260508235212 | 17 | 234 | 6.4 | 12.9 | 0.00 | 0.00 | 0.00 | 55 | 1024.4 |
| 20260508234710 | 17 | 262 | 8.0 | 14.5 | 0.00 | 0.00 | 0.00 | 54 | 1024.4 |
| 20260508234206 | 17 | 144 | 8.0 | 14.5 | 0.00 | 0.00 | 0.00 | 54 | 1024.5 |
| 20260508233706 | 17 | 180 | 9.7 | 11.3 | 0.00 | 0.00 | 0.00 | 54 | 1024.3 |
| 20260508233203 | 17 | 189 | 8.0 | 16.1 | 0.00 | 0.00 | 0.00 | 55 | 1024.3 |
| 20260508232700 | 17 | 141 | 6.4 | 17.7 | 0.00 | 0.00 | 0.00 | 54 | 1024.4 |
| 20260508232156 | 17 | 232 | 9.7 | 12.9 | 0.00 | 0.00 | 0.00 | 54 | 1024.5 |
| 20260508231655 | 17 | 189 | 6.4 | 16.1 | 0.00 | 0.00 | 0.00 | 52 | 1024.3 |
| 20260508231151 | 16 | 200 | 4.8 | 9.7 | 0.00 | 0.00 | 0.00 | 54 | 1024.5 |
| 20260508230648 | 16 | 197 | 9.7 | 14.5 | 0.00 | 0.00 | 0.00 | 55 | 1024.3 |
| 20260508230144 | 16 | 231 | 6.4 | 11.3 | 0.00 | 0.00 | 0.00 | 54 | 1024.6 |
| 20260508225642 | 17 | 130 | 4.8 | 9.7 | 0.00 | 0.00 | 0.00 | 53 | 1024.6 |
| 20260508225138 | 17 | 157 | 6.4 | 14.5 | 0.00 | 0.00 | 0.00 | 52 | 1024.4 |
| 20260508224636 | 16 | 237 | 8.0 | 12.9 | 0.00 | 0.00 | 0.00 | 54 | 1024.6 |
| 20260508224134 | 16 | 226 | 11.3 | 14.5 | 0.00 | 0.00 | 0.00 | 53 | 1024.5 |
| 20260508223631 | 16 | 205 | 4.8 | 16.1 | 0.00 | 0.00 | 0.00 | 53 | 1024.5 |
| 20260508223128 | 16 | 226 | 9.7 | 22.5 | 0.00 | 0.00 | 0.00 | 53 | 1024.6 |
| 20260508222626 | 16 | 164 | 11.3 | 16.1 | 0.00 | 0.00 | 0.00 | 52 | 1024.7 |
| 20260508222122 | 16 | 282 | 12.9 | 16.1 | 0.00 | 0.00 | 0.00 | 55 | 1024.6 |
| 20260508221618 | 16 | 234 | 8.0 | 14.5 | 0.00 | 0.00 | 0.00 | 56 | 1024.3 |
| 20260508221114 | 16 | 261 | 11.3 | 11.3 | 0.00 | 0.00 | 0.00 | 55 | 1024.3 |
| 20260508220611 | 16 | 212 | 4.8 | 11.3 | 0.00 | 0.00 | 0.00 | 55 | 1024.6 |
| 20260508220108 | 16 | 191 | 11.3 | 12.9 | 0.00 | 0.00 | 0.00 | 55 | 1024.7 |
| 20260508215559 | 16 | 235 | 8.0 | 14.5 | 0.00 | 0.00 | 0.00 | 55 | 1024.6 |
| 20260508215056 | 16 | 230 | 4.8 | 9.7 | 0.00 | 0.00 | 0.00 | 56 | 1024.6 |
| 20260508214553 | 15 | 228 | 9.7 | 20.9 | 0.00 | 0.00 | 0.00 | 56 | 1024.7 |
| 20260508214049 | 16 | 240 | 9.7 | 22.5 | 0.00 | 0.00 | 0.00 | 55 | 1024.4 |
| 20260508213547 | 15 | 202 | 11.3 | 17.7 | 0.00 | 0.00 | 0.00 | 56 | 1024.7 |
| 20260508213043 | 15 | 189 | 3.2 | 16.1 | 0.00 | 0.00 | 0.00 | 57 | 1024.5 |
| 20260508212539 | 15 | 244 | 11.3 | 16.1 | 0.00 | 0.00 | 0.00 | 57 | 1024.5 |
| 20260508212036 | 15 | 186 | 8.0 | 16.1 | 0.00 | 0.00 | 0.00 | 57 | 1024.5 |
| 20260508211531 | 15 | 249 | 12.9 | 14.5 | 0.00 | 0.00 | 0.00 | 57 | 1024.5 |
| 20260508211028 | 15 | 268 | 11.3 | 14.5 | 0.00 | 0.00 | 0.00 | 57 | 1024.6 |
| 20260508210525 | 15 | 227 | 12.9 | 14.5 | 0.00 | 0.00 | 0.00 | 58 | 1024.4 |
| 20260508210022 | 15 | 205 | 4.8 | 9.7 | 0.00 | 0.00 | 0.00 | 60 | 1024.4 |
| 20260508205519 | 15 | 250 | 12.9 | 14.5 | 0.00 | 0.00 | 0.00 | 59 | 1024.5 |
| 20260508205015 | 15 | 244 | 11.3 | 16.1 | 0.00 | 0.00 | 0.00 | 59 | 1024.5 |
| 20260508204512 | 15 | 184 | 8.0 | 16.1 | 0.00 | 0.00 | 0.00 | 60 | 1024.0 |
| 20260508204008 | 14 | 208 | 8.0 | 14.5 | 0.00 | 0.00 | 0.00 | 60 | 1024.3 |
| 20260508203504 | 15 | 175 | 8.0 | 12.9 | 0.00 | 0.00 | 0.00 | 60 | 1024.2 |
| 20260508202959 | 15 | 254 | 12.9 | 17.7 | 0.00 | 0.00 | 0.00 | 60 | 1024.5 |
| 20260508202457 | 15 | 236 | 8.0 | 11.3 | 0.00 | 0.00 | 0.00 | 62 | 1024.1 |
| 20260508201954 | 14 | 201 | 8.0 | 11.3 | 0.00 | 0.00 | 0.00 | 61 | 1024.2 |
| 20260508201450 | 13 | 168 | 8.0 | 25.7 | 0.00 | 0.00 | 0.00 | 62 | 1024.2 |
| 20260508200947 | 14 | 163 | 11.3 | 20.9 | 0.00 | 0.00 | 0.00 | 61 | 1024.3 |
| 20260508200444 | 14 | 243 | 12.9 | 20.9 | 0.00 | 0.00 | 0.00 | 61 | 1024.4 |
| 20260508195938 | 13 | 224 | 6.4 | 11.3 | 0.00 | 0.00 | 0.00 | 62 | 1024.2 |
| 20260508195436 | 13 | 170 | 4.8 | 11.3 | 0.00 | 0.00 | 0.00 | 62 | 1024.2 |
| 20260508194932 | 13 | 181 | 16.1 | 17.7 | 0.00 | 0.00 | 0.00 | 61 | 1024.3 |
| 20260508194429 | 13 | 217 | 12.9 | 14.5 | 0.00 | 0.00 | 0.00 | 62 | 1024.4 |
| 20260508193926 | 13 | 163 | 6.4 | 11.3 | 0.00 | 0.00 | 0.00 | 62 | 1024.4 |
| 20260508193423 | 13 | 210 | 17.7 | 22.5 | 0.00 | 0.00 | 0.00 | 63 | 1024.3 |
| 20260508192919 | 13 | 207 | 4.8 | 11.3 | 0.00 | 0.00 | 0.00 | 64 | 1024.2 |
| 20260508192416 | 13 | 151 | 8.0 | 29.0 | 0.00 | 0.00 | 0.00 | 63 | 1024.3 |
| 20260508191913 | 13 | 163 | 6.4 | 11.3 | 0.00 | 0.00 | 0.00 | 64 | 1024.3 |
| 20260508191412 | 12 | 178 | 9.7 | 29.0 | 0.00 | 0.00 | 0.00 | 64 | 1024.1 |
| 20260508190908 | 12 | 248 | 9.7 | 20.9 | 0.00 | 0.00 | 0.00 | 65 | 1024.1 |
| 20260508190405 | 12 | 170 | 14.5 | 22.5 | 0.00 | 0.00 | 0.00 | 67 | 1024.2 |
| 20260508185901 | 12 | 167 | 11.3 | 14.5 | 0.00 | 0.00 | 0.00 | 67 | 1024.2 |
| 20260508185359 | 12 | 293 | 6.4 | 11.3 | 0.00 | 0.00 | 0.00 | 69 | 1024.3 |
| 20260508184856 | 12 | 232 | 14.5 | 17.7 | 0.00 | 0.00 | 0.00 | 68 | 1024.2 |
| 20260508184353 | 12 | 136 | 8.0 | 11.3 | 0.00 | 0.00 | 0.00 | 69 | 1024.3 |
| 20260508183849 | 12 | 214 | 14.5 | 22.5 | 0.00 | 0.00 | 0.00 | 69 | 1024.3 |
| 20260508183346 | 12 | 196 | 9.7 | 16.1 | 0.00 | 0.00 | 0.00 | 69 | 1024.2 |
| 20260508182842 | 12 | 184 | 8.0 | 11.3 | 0.00 | 0.00 | 0.00 | 70 | 1024.1 |
| 20260508182339 | 12 | 187 | 9.7 | 17.7 | 0.00 | 0.00 | 0.00 | 69 | 1024.1 |
| 20260508181834 | 12 | 239 | 6.4 | 9.7 | 0.00 | 0.00 | 0.00 | 69 | 1024.0 |
| 20260508181331 | 12 | 211 | 3.2 | 14.5 | 0.00 | 0.00 | 0.00 | 68 | 1024.0 |
| 20260508180828 | 12 | 242 | 8.0 | 12.9 | 0.00 | 0.00 | 0.00 | 69 | 1023.9 |
| 20260508180325 | 12 | 155 | 6.4 | 12.9 | 0.00 | 0.00 | 0.00 | 69 | 1023.7 |
| 20260508175821 | 12 | 119 | 4.8 | 14.5 | 0.00 | 0.00 | 0.00 | 69 | 1023.7 |
| 20260508175318 | 12 | 181 | 8.0 | 12.9 | 0.00 | 0.00 | 0.00 | 68 | 1023.6 |
| 20260508174816 | 12 | 205 | 12.9 | 17.7 | 0.00 | 0.00 | 0.00 | 69 | 1023.7 |
| 20260508174313 | 12 | 156 | 12.9 | 16.1 | 0.00 | 0.00 | 0.00 | 70 | 1023.5 |
| 20260508173809 | 12 | 192 | 9.7 | 12.9 | 0.00 | 0.00 | 0.00 | 70 | 1023.5 |
| 20260508173307 | 11 | 164 | 8.0 | 20.9 | 0.00 | 0.00 | 0.00 | 72 | 1023.5 |
| 20260508172802 | 11 | 208 | 8.0 | 12.9 | 0.00 | 0.00 | 0.00 | 73 | 1023.3 |
| 20260508172300 | 11 | 174 | 4.8 | 11.3 | 0.00 | 0.00 | 0.00 | 73 | 1023.1 |
| 20260508171755 | 11 | 167 | 3.2 | 8.0 | 0.00 | 0.00 | 0.00 | 74 | 1023.1 |
| 20260508171252 | 11 | 191 | 11.3 | 16.1 | 0.00 | 0.00 | 0.00 | 73 | 1023.1 |
| 20260508170749 | 11 | 206 | 8.0 | 11.3 | 0.00 | 0.00 | 0.00 | 73 | 1023.1 |
| 20260508170247 | 11 | 193 | 8.0 | 11.3 | 0.00 | 0.00 | 0.00 | 73 | 1023.1 |
| 20260508165744 | 11 | 198 | 3.2 | 11.3 | 0.00 | 0.00 | 0.00 | 74 | 1022.9 |
| 20260508165241 | 11 | 179 | 6.4 | 11.3 | 0.00 | 0.00 | 0.00 | 75 | 1023.2 |
| 20260508164737 | 11 | 218 | 4.8 | 8.0 | 0.00 | 0.00 | 0.00 | 75 | 1022.8 |
| 20260508164233 | 11 | 230 | 8.0 | 8.0 | 0.00 | 0.00 | 0.00 | 74 | 1022.7 |
| 20260508163732 | 11 | 174 | 0.0 | 4.8 | 0.00 | 0.00 | 0.00 | 74 | 1022.8 |
| 20260508163229 | 11 | 169 | 3.2 | 9.7 | 0.00 | 0.00 | 0.00 | 73 | 1022.7 |
| 20260508162725 | 11 | 213 | 6.4 | 9.7 | 0.00 | 0.00 | 0.00 | 73 | 1022.9 |
| 20260508162222 | 11 | 250 | 8.0 | 9.7 | 0.00 | 0.00 | 0.00 | 73 | 1022.7 |
| 20260508161719 | 11 | 225 | 4.8 | 9.7 | 0.00 | 0.00 | 0.00 | 73 | 1022.7 |
| 20260508161216 | 11 | 194 | 3.2 | 4.8 | 0.00 | 0.00 | 0.00 | 73 | 1022.7 |
| 20260508160714 | 11 | 138 | 3.2 | 9.7 | 0.00 | 0.00 | 0.00 | 72 | 1022.6 |
| 20260508160212 | 11 | 133 | 4.8 | 4.8 | 0.00 | 0.00 | 0.00 | 72 | 1022.8 |
| 20260508155708 | 11 | 231 | 6.4 | 12.9 | 0.00 | 0.00 | 0.00 | 73 | 1022.5 |
| 20260508155205 | 11 | 163 | 1.6 | 4.8 | 0.00 | 0.00 | 0.00 | 74 | 1022.6 |
| 20260508154702 | 11 | 176 | 8.0 | 9.7 | 0.00 | 0.00 | 0.00 | 74 | 1022.5 |
| 20260508154159 | 11 | 197 | 6.4 | 11.3 | 0.00 | 0.00 | 0.00 | 74 | 1022.9 |
| 20260508153656 | 11 | 202 | 9.7 | 12.9 | 0.00 | 0.00 | 0.00 | 74 | 1022.6 |
| 20260508153153 | 11 | 156 | 8.0 | 11.3 | 0.00 | 0.00 | 0.00 | 75 | 1022.8 |
| 20260508152649 | 11 | 254 | 8.0 | 12.9 | 0.00 | 0.00 | 0.00 | 75 | 1022.8 |
| 20260508152145 | 11 | 212 | 11.3 | 17.7 | 0.00 | 0.00 | 0.00 | 74 | 1022.8 |
| 20260508151642 | 11 | 224 | 8.0 | 16.1 | 0.00 | 0.00 | 0.00 | 75 | 1022.8 |
| 20260508151139 | 11 | 199 | 12.9 | 20.9 | 0.00 | 0.00 | 0.00 | 75 | 1022.9 |
| 20260508150637 | 11 | 252 | 11.3 | 12.9 | 0.00 | 0.00 | 0.00 | 75 | 1022.8 |
| 20260508150133 | 11 | 192 | 6.4 | 12.9 | 0.00 | 0.00 | 0.00 | 77 | 1022.7 |
| 20260508145629 | 11 | 214 | 6.4 | 9.7 | 0.00 | 0.00 | 0.00 | 77 | 1022.6 |
| 20260508145125 | 11 | 211 | 8.0 | 12.9 | 0.00 | 0.00 | 0.00 | 77 | 1022.7 |
| 20260508144623 | 10 | 177 | 4.8 | 14.5 | 0.00 | 0.00 | 0.00 | 79 | 1022.6 |
| 20260508144115 | 10 | 219 | 11.3 | 16.1 | 0.00 | 0.00 | 0.00 | 79 | 1022.5 |
| 20260508143612 | 10 | 187 | 11.3 | 14.5 | 0.00 | 0.00 | 0.00 | 80 | 1022.2 |
| 20260508143108 | 10 | 218 | 8.0 | 12.9 | 0.00 | 0.00 | 0.00 | 81 | 1022.3 |
| 20260508142605 | 10 | 216 | 6.4 | 12.9 | 0.00 | 0.00 | 0.00 | 80 | 1022.1 |
| 20260508142102 | 10 | 178 | 14.5 | 20.9 | 0.00 | 0.00 | 0.00 | 81 | 1022.2 |
| 20260508141559 | 10 | 221 | 9.7 | 14.5 | 0.00 | 0.00 | 0.00 | 82 | 1022.0 |
| 20260508141056 | 10 | 201 | 8.0 | 14.5 | 0.00 | 0.00 | 0.00 | 82 | 1022.0 |
| 20260508140553 | 10 | 152 | 11.3 | 12.9 | 0.00 | 0.00 | 0.00 | 82 | 1021.9 |
| 20260508140049 | 10 | 210 | 9.7 | 14.5 | 0.00 | 0.00 | 0.00 | 83 | 1021.9 |
| 20260508135544 | 10 | 105 | 4.8 | 8.0 | 0.00 | 0.00 | 0.00 | 83 | 1021.5 |
| 20260508135041 | 10 | 181 | 3.2 | 11.3 | 0.00 | 0.00 | 0.00 | 82 | 1021.6 |
| 20260508134538 | 10 | 214 | 8.0 | 11.3 | 0.00 | 0.00 | 0.00 | 83 | 1021.5 |
| 20260508134035 | 10 | 197 | 11.3 | 14.5 | 0.00 | 0.00 | 0.00 | 83 | 1021.5 |
| 20260508133532 | 10 | 139 | 4.8 | 11.3 | 0.00 | 0.00 | 0.00 | 83 | 1021.3 |
| 20260508133029 | 10 | 206 | 4.8 | 11.3 | 0.00 | 0.00 | 0.00 | 84 | 1021.2 |
| 20260508132527 | 10 | 184 | 6.4 | 11.3 | 0.00 | 0.00 | 0.00 | 84 | 1021.4 |
| 20260508132023 | 10 | 200 | 6.4 | 11.3 | 0.00 | 0.00 | 0.00 | 84 | 1021.2 |